sensor_id;sensor_type;location;lat;lon;timestamp;P1;durP1;ratioP1;P2;durP2;ratioP2
5245;SDS011;54412;51.206;6.888;2023-04-06T00:01:37;11.50;;;8.47;;
5245;SDS011;54412;51.206;6.888;2023-04-06T00:04:04;13.83;;;7.60;;
5245;SDS011;54412;51.206;6.888;2023-04-06T00:06:30;9.87;;;8.13;;
5245;SDS011;54412;51.206;6.888;2023-04-06T00:08:57;9.70;;;8.00;;
5245;SDS011;54412;51.206;6.888;2023-04-06T00:11:23;12.10;;;8.60;;
5245;SDS011;54412;51.206;6.888;2023-04-06T00:13:49;13.60;;;9.17;;
5245;SDS011;54412;51.206;6.888;2023-04-06T00:16:14;19.97;;;9.23;;
5245;SDS011;54412;51.206;6.888;2023-04-06T00:18:40;17.00;;;9.07;;
5245;SDS011;54412;51.206;6.888;2023-04-06T00:21:06;9.50;;;7.80;;
5245;SDS011;54412;51.206;6.888;2023-04-06T00:23:32;9.90;;;7.90;;
5245;SDS011;54412;51.206;6.888;2023-04-06T00:25:57;8.63;;;7.47;;
5245;SDS011;54412;51.206;6.888;2023-04-06T00:28:23;10.47;;;8.67;;
5245;SDS011;54412;51.206;6.888;2023-04-06T00:30:52;11.50;;;9.00;;
5245;SDS011;54412;51.206;6.888;2023-04-06T00:33:20;11.90;;;8.77;;
5245;SDS011;54412;51.206;6.888;2023-04-06T00:35:46;9.90;;;8.90;;
5245;SDS011;54412;51.206;6.888;2023-04-06T00:38:11;14.47;;;9.67;;
5245;SDS011;54412;51.206;6.888;2023-04-06T00:40:37;12.13;;;9.07;;
5245;SDS011;54412;51.206;6.888;2023-04-06T00:43:05;19.70;;;9.57;;
5245;SDS011;54412;51.206;6.888;2023-04-06T00:45:31;10.90;;;8.10;;
5245;SDS011;54412;51.206;6.888;2023-04-06T00:47:58;12.93;;;8.77;;
5245;SDS011;54412;51.206;6.888;2023-04-06T00:50:24;9.77;;;8.33;;
5245;SDS011;54412;51.206;6.888;2023-04-06T00:52:50;10.73;;;8.10;;
5245;SDS011;54412;51.206;6.888;2023-04-06T00:55:16;10.27;;;8.37;;
5245;SDS011;54412;51.206;6.888;2023-04-06T00:57:42;11.20;;;8.57;;
5245;SDS011;54412;51.206;6.888;2023-04-06T01:00:08;15.20;;;8.63;;
5245;SDS011;54412;51.206;6.888;2023-04-06T01:02:35;10.33;;;8.03;;
5245;SDS011;54412;51.206;6.888;2023-04-06T01:05:02;9.40;;;8.40;;
5245;SDS011;54412;51.206;6.888;2023-04-06T01:07:27;11.10;;;8.83;;
5245;SDS011;54412;51.206;6.888;2023-04-06T01:09:53;9.03;;;8.13;;
5245;SDS011;54412;51.206;6.888;2023-04-06T01:12:19;10.30;;;8.80;;
5245;SDS011;54412;51.206;6.888;2023-04-06T01:14:45;10.10;;;8.60;;
5245;SDS011;54412;51.206;6.888;2023-04-06T01:17:11;10.20;;;8.30;;
5245;SDS011;54412;51.206;6.888;2023-04-06T01:19:37;11.47;;;9.30;;
5245;SDS011;54412;51.206;6.888;2023-04-06T01:22:04;10.53;;;7.97;;
5245;SDS011;54412;51.206;6.888;2023-04-06T01:24:30;17.00;;;8.83;;
5245;SDS011;54412;51.206;6.888;2023-04-06T01:26:55;12.23;;;9.80;;
5245;SDS011;54412;51.206;6.888;2023-04-06T01:29:21;18.33;;;9.80;;
5245;SDS011;54412;51.206;6.888;2023-04-06T01:31:47;11.33;;;8.20;;
5245;SDS011;54412;51.206;6.888;2023-04-06T01:34:12;12.20;;;7.83;;
5245;SDS011;54412;51.206;6.888;2023-04-06T01:36:38;11.50;;;9.20;;
5245;SDS011;54412;51.206;6.888;2023-04-06T01:39:04;10.37;;;9.30;;
5245;SDS011;54412;51.206;6.888;2023-04-06T01:41:30;10.53;;;8.30;;
5245;SDS011;54412;51.206;6.888;2023-04-06T01:43:55;11.73;;;9.37;;
5245;SDS011;54412;51.206;6.888;2023-04-06T01:46:21;17.23;;;9.73;;
5245;SDS011;54412;51.206;6.888;2023-04-06T01:48:47;14.50;;;9.47;;
5245;SDS011;54412;51.206;6.888;2023-04-06T01:51:12;12.33;;;8.33;;
5245;SDS011;54412;51.206;6.888;2023-04-06T01:53:38;15.30;;;9.90;;
5245;SDS011;54412;51.206;6.888;2023-04-06T01:56:04;12.40;;;9.00;;
5245;SDS011;54412;51.206;6.888;2023-04-06T01:58:30;9.27;;;8.37;;
5245;SDS011;54412;51.206;6.888;2023-04-06T02:00:56;12.83;;;8.73;;
5245;SDS011;54412;51.206;6.888;2023-04-06T02:03:21;11.97;;;8.53;;
5245;SDS011;54412;51.206;6.888;2023-04-06T02:05:47;13.73;;;9.37;;
5245;SDS011;54412;51.206;6.888;2023-04-06T02:08:13;10.40;;;8.37;;
5245;SDS011;54412;51.206;6.888;2023-04-06T02:10:39;9.37;;;8.23;;
5245;SDS011;54412;51.206;6.888;2023-04-06T02:13:05;11.00;;;9.13;;
5245;SDS011;54412;51.206;6.888;2023-04-06T02:15:30;16.60;;;9.87;;
5245;SDS011;54412;51.206;6.888;2023-04-06T02:17:56;10.63;;;9.17;;
5245;SDS011;54412;51.206;6.888;2023-04-06T02:20:22;17.73;;;9.60;;
5245;SDS011;54412;51.206;6.888;2023-04-06T02:22:48;12.13;;;9.30;;
5245;SDS011;54412;51.206;6.888;2023-04-06T02:25:13;11.70;;;8.97;;
5245;SDS011;54412;51.206;6.888;2023-04-06T02:27:39;8.93;;;8.03;;
5245;SDS011;54412;51.206;6.888;2023-04-06T02:30:05;11.73;;;9.47;;
5245;SDS011;54412;51.206;6.888;2023-04-06T02:32:31;11.70;;;9.20;;
5245;SDS011;54412;51.206;6.888;2023-04-06T02:34:57;12.17;;;9.47;;
5245;SDS011;54412;51.206;6.888;2023-04-06T02:37:23;14.40;;;9.83;;
5245;SDS011;54412;51.206;6.888;2023-04-06T02:39:49;10.37;;;8.67;;
5245;SDS011;54412;51.206;6.888;2023-04-06T02:42:15;12.90;;;9.00;;
5245;SDS011;54412;51.206;6.888;2023-04-06T02:44:41;12.47;;;9.27;;
5245;SDS011;54412;51.206;6.888;2023-04-06T02:47:08;9.20;;;8.00;;
5245;SDS011;54412;51.206;6.888;2023-04-06T02:49:34;12.20;;;8.60;;
5245;SDS011;54412;51.206;6.888;2023-04-06T02:51:59;10.90;;;8.80;;
5245;SDS011;54412;51.206;6.888;2023-04-06T02:54:25;11.50;;;8.90;;
5245;SDS011;54412;51.206;6.888;2023-04-06T02:56:51;14.73;;;9.00;;
5245;SDS011;54412;51.206;6.888;2023-04-06T02:59:16;9.70;;;8.07;;
5245;SDS011;54412;51.206;6.888;2023-04-06T03:01:42;13.90;;;9.00;;
5245;SDS011;54412;51.206;6.888;2023-04-06T03:04:08;13.67;;;8.70;;
5245;SDS011;54412;51.206;6.888;2023-04-06T03:06:33;10.37;;;8.33;;
5245;SDS011;54412;51.206;6.888;2023-04-06T03:08:59;9.03;;;7.77;;
5245;SDS011;54412;51.206;6.888;2023-04-06T03:11:25;14.20;;;7.93;;
5245;SDS011;54412;51.206;6.888;2023-04-06T03:13:51;11.93;;;8.87;;
5245;SDS011;54412;51.206;6.888;2023-04-06T03:16:17;12.13;;;8.60;;
5245;SDS011;54412;51.206;6.888;2023-04-06T03:18:42;8.87;;;7.63;;
5245;SDS011;54412;51.206;6.888;2023-04-06T03:21:10;9.10;;;7.90;;
5245;SDS011;54412;51.206;6.888;2023-04-06T03:23:35;9.67;;;8.13;;
5245;SDS011;54412;51.206;6.888;2023-04-06T03:26:01;12.07;;;8.30;;
5245;SDS011;54412;51.206;6.888;2023-04-06T03:28:28;8.40;;;7.53;;
5245;SDS011;54412;51.206;6.888;2023-04-06T03:30:54;10.07;;;8.90;;
5245;SDS011;54412;51.206;6.888;2023-04-06T03:33:19;13.30;;;7.90;;
5245;SDS011;54412;51.206;6.888;2023-04-06T03:35:45;8.00;;;7.20;;
5245;SDS011;54412;51.206;6.888;2023-04-06T03:38:11;10.70;;;7.50;;
5245;SDS011;54412;51.206;6.888;2023-04-06T03:40:36;10.03;;;7.57;;
5245;SDS011;54412;51.206;6.888;2023-04-06T03:43:02;8.50;;;7.57;;
5245;SDS011;54412;51.206;6.888;2023-04-06T03:45:29;8.90;;;7.37;;
5245;SDS011;54412;51.206;6.888;2023-04-06T03:47:54;16.13;;;8.43;;
5245;SDS011;54412;51.206;6.888;2023-04-06T03:50:20;9.10;;;6.47;;
5245;SDS011;54412;51.206;6.888;2023-04-06T03:52:46;11.83;;;7.70;;
5245;SDS011;54412;51.206;6.888;2023-04-06T03:55:11;7.27;;;6.57;;
5245;SDS011;54412;51.206;6.888;2023-04-06T03:57:37;10.00;;;8.50;;
5245;SDS011;54412;51.206;6.888;2023-04-06T04:00:03;13.60;;;8.40;;
5245;SDS011;54412;51.206;6.888;2023-04-06T04:02:30;10.97;;;7.60;;
5245;SDS011;54412;51.206;6.888;2023-04-06T04:04:55;7.43;;;6.57;;
5245;SDS011;54412;51.206;6.888;2023-04-06T04:07:21;9.10;;;7.00;;
5245;SDS011;54412;51.206;6.888;2023-04-06T04:09:47;11.30;;;7.60;;
5245;SDS011;54412;51.206;6.888;2023-04-06T04:12:12;13.83;;;7.80;;
5245;SDS011;54412;51.206;6.888;2023-04-06T04:14:39;11.50;;;7.40;;
5245;SDS011;54412;51.206;6.888;2023-04-06T04:17:05;12.13;;;8.00;;
5245;SDS011;54412;51.206;6.888;2023-04-06T04:19:30;10.93;;;7.77;;
5245;SDS011;54412;51.206;6.888;2023-04-06T04:21:56;9.03;;;7.63;;
5245;SDS011;54412;51.206;6.888;2023-04-06T04:24:22;10.63;;;7.20;;
5245;SDS011;54412;51.206;6.888;2023-04-06T04:26:48;11.23;;;7.57;;
5245;SDS011;54412;51.206;6.888;2023-04-06T04:29:13;10.83;;;7.73;;
5245;SDS011;54412;51.206;6.888;2023-04-06T04:31:40;8.13;;;6.60;;
5245;SDS011;54412;51.206;6.888;2023-04-06T04:34:05;9.83;;;7.07;;
5245;SDS011;54412;51.206;6.888;2023-04-06T04:36:31;9.60;;;7.00;;
5245;SDS011;54412;51.206;6.888;2023-04-06T04:38:57;18.33;;;7.63;;
5245;SDS011;54412;51.206;6.888;2023-04-06T04:41:23;8.10;;;6.50;;
5245;SDS011;54412;51.206;6.888;2023-04-06T04:43:49;7.37;;;6.67;;
5245;SDS011;54412;51.206;6.888;2023-04-06T04:46:15;8.20;;;7.10;;
5245;SDS011;54412;51.206;6.888;2023-04-06T04:48:40;8.20;;;6.73;;
5245;SDS011;54412;51.206;6.888;2023-04-06T04:51:06;11.00;;;6.70;;
5245;SDS011;54412;51.206;6.888;2023-04-06T04:53:31;7.73;;;6.93;;
5245;SDS011;54412;51.206;6.888;2023-04-06T04:55:57;8.40;;;7.50;;
5245;SDS011;54412;51.206;6.888;2023-04-06T04:58:23;10.80;;;7.70;;
5245;SDS011;54412;51.206;6.888;2023-04-06T05:00:49;10.07;;;7.33;;
5245;SDS011;54412;51.206;6.888;2023-04-06T05:03:23;10.60;;;8.07;;
5245;SDS011;54412;51.206;6.888;2023-04-06T05:05:51;7.60;;;6.80;;
5245;SDS011;54412;51.206;6.888;2023-04-06T05:08:17;9.37;;;7.93;;
5245;SDS011;54412;51.206;6.888;2023-04-06T05:10:43;9.00;;;7.07;;
5245;SDS011;54412;51.206;6.888;2023-04-06T05:13:10;11.07;;;7.30;;
5245;SDS011;54412;51.206;6.888;2023-04-06T05:15:36;7.43;;;6.63;;
5245;SDS011;54412;51.206;6.888;2023-04-06T05:18:05;9.50;;;7.27;;
5245;SDS011;54412;51.206;6.888;2023-04-06T05:20:34;8.30;;;7.37;;
5245;SDS011;54412;51.206;6.888;2023-04-06T05:23:01;8.03;;;6.50;;
5245;SDS011;54412;51.206;6.888;2023-04-06T05:25:26;7.87;;;7.03;;
5245;SDS011;54412;51.206;6.888;2023-04-06T05:27:53;10.23;;;6.37;;
5245;SDS011;54412;51.206;6.888;2023-04-06T05:30:19;10.30;;;7.30;;
5245;SDS011;54412;51.206;6.888;2023-04-06T05:32:45;10.03;;;6.57;;
5245;SDS011;54412;51.206;6.888;2023-04-06T05:35:11;8.87;;;6.77;;
5245;SDS011;54412;51.206;6.888;2023-04-06T05:37:38;8.37;;;6.80;;
5245;SDS011;54412;51.206;6.888;2023-04-06T05:40:04;14.40;;;6.43;;
5245;SDS011;54412;51.206;6.888;2023-04-06T05:42:39;7.57;;;6.70;;
5245;SDS011;54412;51.206;6.888;2023-04-06T05:45:07;8.23;;;6.93;;
5245;SDS011;54412;51.206;6.888;2023-04-06T05:47:41;10.33;;;6.97;;
5245;SDS011;54412;51.206;6.888;2023-04-06T05:50:09;7.73;;;6.53;;
5245;SDS011;54412;51.206;6.888;2023-04-06T05:52:35;8.87;;;6.90;;
5245;SDS011;54412;51.206;6.888;2023-04-06T05:55:02;10.00;;;7.00;;
5245;SDS011;54412;51.206;6.888;2023-04-06T05:57:28;11.73;;;6.97;;
5245;SDS011;54412;51.206;6.888;2023-04-06T05:59:54;8.03;;;6.03;;
5245;SDS011;54412;51.206;6.888;2023-04-06T06:02:20;14.73;;;6.47;;
5245;SDS011;54412;51.206;6.888;2023-04-06T06:04:46;10.37;;;7.30;;
5245;SDS011;54412;51.206;6.888;2023-04-06T06:07:13;10.07;;;6.93;;
5245;SDS011;54412;51.206;6.888;2023-04-06T06:09:40;12.63;;;6.47;;
5245;SDS011;54412;51.206;6.888;2023-04-06T06:12:05;11.13;;;6.77;;
5245;SDS011;54412;51.206;6.888;2023-04-06T06:14:31;9.80;;;6.57;;
5245;SDS011;54412;51.206;6.888;2023-04-06T06:16:57;10.10;;;6.63;;
5245;SDS011;54412;51.206;6.888;2023-04-06T06:19:22;6.73;;;6.00;;
5245;SDS011;54412;51.206;6.888;2023-04-06T06:21:48;10.13;;;7.23;;
5245;SDS011;54412;51.206;6.888;2023-04-06T06:24:14;8.33;;;5.57;;
5245;SDS011;54412;51.206;6.888;2023-04-06T06:26:40;8.90;;;7.20;;
5245;SDS011;54412;51.206;6.888;2023-04-06T06:29:06;8.67;;;6.47;;
5245;SDS011;54412;51.206;6.888;2023-04-06T06:31:32;8.43;;;6.73;;
5245;SDS011;54412;51.206;6.888;2023-04-06T06:33:58;10.53;;;7.03;;
5245;SDS011;54412;51.206;6.888;2023-04-06T06:36:24;10.53;;;6.43;;
5245;SDS011;54412;51.206;6.888;2023-04-06T06:38:50;7.07;;;6.30;;
5245;SDS011;54412;51.206;6.888;2023-04-06T06:41:16;6.10;;;5.50;;
5245;SDS011;54412;51.206;6.888;2023-04-06T06:43:42;9.13;;;6.63;;
5245;SDS011;54412;51.206;6.888;2023-04-06T06:46:08;14.43;;;6.20;;
5245;SDS011;54412;51.206;6.888;2023-04-06T06:48:34;6.90;;;6.20;;
5245;SDS011;54412;51.206;6.888;2023-04-06T06:50:59;7.67;;;6.87;;
5245;SDS011;54412;51.206;6.888;2023-04-06T06:53:25;9.20;;;6.60;;
5245;SDS011;54412;51.206;6.888;2023-04-06T06:55:51;10.57;;;6.70;;
5245;SDS011;54412;51.206;6.888;2023-04-06T06:58:20;8.70;;;6.87;;
5245;SDS011;54412;51.206;6.888;2023-04-06T07:00:45;8.53;;;6.70;;
5245;SDS011;54412;51.206;6.888;2023-04-06T07:03:12;8.40;;;5.87;;
5245;SDS011;54412;51.206;6.888;2023-04-06T07:05:38;8.30;;;6.83;;
5245;SDS011;54412;51.206;6.888;2023-04-06T07:08:04;10.13;;;6.40;;
5245;SDS011;54412;51.206;6.888;2023-04-06T07:10:30;9.70;;;7.13;;
5245;SDS011;54412;51.206;6.888;2023-04-06T07:12:55;8.93;;;6.03;;
5245;SDS011;54412;51.206;6.888;2023-04-06T07:15:21;8.50;;;6.40;;
5245;SDS011;54412;51.206;6.888;2023-04-06T07:17:47;9.67;;;6.60;;
5245;SDS011;54412;51.206;6.888;2023-04-06T07:20:13;13.63;;;7.70;;
5245;SDS011;54412;51.206;6.888;2023-04-06T07:22:40;11.13;;;6.87;;
5245;SDS011;54412;51.206;6.888;2023-04-06T07:25:09;9.50;;;7.03;;
5245;SDS011;54412;51.206;6.888;2023-04-06T07:27:35;8.80;;;6.93;;
5245;SDS011;54412;51.206;6.888;2023-04-06T07:30:01;8.43;;;6.43;;
5245;SDS011;54412;51.206;6.888;2023-04-06T07:32:27;8.27;;;6.93;;
5245;SDS011;54412;51.206;6.888;2023-04-06T07:34:52;13.90;;;6.87;;
5245;SDS011;54412;51.206;6.888;2023-04-06T07:37:18;9.20;;;6.93;;
5245;SDS011;54412;51.206;6.888;2023-04-06T07:39:44;10.30;;;6.93;;
5245;SDS011;54412;51.206;6.888;2023-04-06T07:42:10;8.47;;;7.10;;
5245;SDS011;54412;51.206;6.888;2023-04-06T07:44:35;8.33;;;6.83;;
5245;SDS011;54412;51.206;6.888;2023-04-06T07:47:01;11.33;;;7.50;;
5245;SDS011;54412;51.206;6.888;2023-04-06T07:49:27;13.90;;;7.47;;
5245;SDS011;54412;51.206;6.888;2023-04-06T07:51:53;10.40;;;7.87;;
5245;SDS011;54412;51.206;6.888;2023-04-06T07:54:19;12.17;;;7.93;;
5245;SDS011;54412;51.206;6.888;2023-04-06T07:56:45;9.60;;;6.70;;
5245;SDS011;54412;51.206;6.888;2023-04-06T07:59:10;8.20;;;7.40;;
5245;SDS011;54412;51.206;6.888;2023-04-06T08:01:36;12.97;;;7.90;;
5245;SDS011;54412;51.206;6.888;2023-04-06T08:04:02;12.50;;;6.97;;
5245;SDS011;54412;51.206;6.888;2023-04-06T08:06:28;12.47;;;8.03;;
5245;SDS011;54412;51.206;6.888;2023-04-06T08:08:54;9.77;;;7.37;;
5245;SDS011;54412;51.206;6.888;2023-04-06T08:11:19;9.97;;;8.23;;
5245;SDS011;54412;51.206;6.888;2023-04-06T08:13:45;12.90;;;6.90;;
5245;SDS011;54412;51.206;6.888;2023-04-06T08:16:11;14.73;;;7.73;;
5245;SDS011;54412;51.206;6.888;2023-04-06T08:18:37;12.83;;;7.83;;
5245;SDS011;54412;51.206;6.888;2023-04-06T08:21:02;12.03;;;7.60;;
5245;SDS011;54412;51.206;6.888;2023-04-06T08:23:28;14.23;;;7.97;;
5245;SDS011;54412;51.206;6.888;2023-04-06T08:25:54;10.23;;;7.63;;
5245;SDS011;54412;51.206;6.888;2023-04-06T08:28:20;9.57;;;7.63;;
5245;SDS011;54412;51.206;6.888;2023-04-06T08:30:46;11.00;;;7.50;;
5245;SDS011;54412;51.206;6.888;2023-04-06T08:33:12;11.10;;;8.30;;
5245;SDS011;54412;51.206;6.888;2023-04-06T08:35:38;13.03;;;8.53;;
5245;SDS011;54412;51.206;6.888;2023-04-06T08:38:04;11.90;;;7.87;;
5245;SDS011;54412;51.206;6.888;2023-04-06T08:40:35;12.73;;;8.60;;
5245;SDS011;54412;51.206;6.888;2023-04-06T08:43:06;13.60;;;8.17;;
5245;SDS011;54412;51.206;6.888;2023-04-06T08:45:38;12.63;;;7.80;;
5245;SDS011;54412;51.206;6.888;2023-04-06T08:48:06;10.70;;;8.00;;
5245;SDS011;54412;51.206;6.888;2023-04-06T08:50:32;13.03;;;8.07;;
5245;SDS011;54412;51.206;6.888;2023-04-06T08:52:58;14.23;;;8.13;;
5245;SDS011;54412;51.206;6.888;2023-04-06T08:55:26;11.70;;;8.50;;
5245;SDS011;54412;51.206;6.888;2023-04-06T08:57:52;12.23;;;8.67;;
5245;SDS011;54412;51.206;6.888;2023-04-06T09:00:20;18.37;;;9.70;;
5245;SDS011;54412;51.206;6.888;2023-04-06T09:02:46;17.27;;;9.37;;
5245;SDS011;54412;51.206;6.888;2023-04-06T09:05:14;13.73;;;9.53;;
5245;SDS011;54412;51.206;6.888;2023-04-06T09:07:41;12.53;;;9.30;;
5245;SDS011;54412;51.206;6.888;2023-04-06T09:10:07;16.27;;;10.63;;
5245;SDS011;54412;51.206;6.888;2023-04-06T09:12:34;12.20;;;9.30;;
5245;SDS011;54412;51.206;6.888;2023-04-06T09:15:00;18.10;;;9.50;;
5245;SDS011;54412;51.206;6.888;2023-04-06T09:17:27;17.53;;;10.30;;
5245;SDS011;54412;51.206;6.888;2023-04-06T09:19:57;14.33;;;9.33;;
5245;SDS011;54412;51.206;6.888;2023-04-06T09:22:25;13.43;;;9.87;;
5245;SDS011;54412;51.206;6.888;2023-04-06T09:24:59;15.73;;;9.30;;
5245;SDS011;54412;51.206;6.888;2023-04-06T09:27:32;13.80;;;9.47;;
5245;SDS011;54412;51.206;6.888;2023-04-06T09:30:07;16.87;;;10.30;;
5245;SDS011;54412;51.206;6.888;2023-04-06T09:32:55;19.67;;;9.60;;
5245;SDS011;54412;51.206;6.888;2023-04-06T09:35:22;14.60;;;10.47;;
5245;SDS011;54412;51.206;6.888;2023-04-06T09:37:49;17.40;;;10.07;;
5245;SDS011;54412;51.206;6.888;2023-04-06T09:40:20;19.60;;;10.83;;
5245;SDS011;54412;51.206;6.888;2023-04-06T09:42:47;17.07;;;11.13;;
5245;SDS011;54412;51.206;6.888;2023-04-06T09:45:17;18.43;;;11.60;;
5245;SDS011;54412;51.206;6.888;2023-04-06T09:47:43;13.00;;;10.13;;
5245;SDS011;54412;51.206;6.888;2023-04-06T09:50:10;16.90;;;10.20;;
5245;SDS011;54412;51.206;6.888;2023-04-06T09:52:42;14.57;;;10.30;;
5245;SDS011;54412;51.206;6.888;2023-04-06T09:55:31;15.13;;;10.87;;
5245;SDS011;54412;51.206;6.888;2023-04-06T09:58:05;13.77;;;10.23;;
5245;SDS011;54412;51.206;6.888;2023-04-06T10:00:59;16.50;;;10.30;;
5245;SDS011;54412;51.206;6.888;2023-04-06T10:03:30;17.27;;;11.60;;
5245;SDS011;54412;51.206;6.888;2023-04-06T10:06:14;26.20;;;12.77;;
5245;SDS011;54412;51.206;6.888;2023-04-06T10:08:46;22.70;;;12.47;;
5245;SDS011;54412;51.206;6.888;2023-04-06T10:11:16;21.10;;;10.97;;
5245;SDS011;54412;51.206;6.888;2023-04-06T10:13:44;18.80;;;11.30;;
5245;SDS011;54412;51.206;6.888;2023-04-06T10:16:14;19.60;;;11.37;;
5245;SDS011;54412;51.206;6.888;2023-04-06T10:18:41;20.37;;;11.70;;
5245;SDS011;54412;51.206;6.888;2023-04-06T10:21:19;19.00;;;12.10;;
5245;SDS011;54412;51.206;6.888;2023-04-06T10:23:51;17.37;;;10.77;;
5245;SDS011;54412;51.206;6.888;2023-04-06T10:26:22;15.90;;;10.43;;
5245;SDS011;54412;51.206;6.888;2023-04-06T10:28:49;17.13;;;11.50;;
5245;SDS011;54412;51.206;6.888;2023-04-06T10:31:15;15.10;;;10.80;;
5245;SDS011;54412;51.206;6.888;2023-04-06T10:33:53;16.20;;;9.90;;
5245;SDS011;54412;51.206;6.888;2023-04-06T10:36:26;21.63;;;11.20;;
5245;SDS011;54412;51.206;6.888;2023-04-06T10:38:57;19.10;;;10.97;;
5245;SDS011;54412;51.206;6.888;2023-04-06T10:41:32;20.17;;;10.30;;
5245;SDS011;54412;51.206;6.888;2023-04-06T10:44:06;17.00;;;11.43;;
5245;SDS011;54412;51.206;6.888;2023-04-06T10:46:32;18.63;;;10.40;;
5245;SDS011;54412;51.206;6.888;2023-04-06T10:49:11;15.93;;;10.60;;
5245;SDS011;54412;51.206;6.888;2023-04-06T10:51:38;26.90;;;12.10;;
5245;SDS011;54412;51.206;6.888;2023-04-06T10:54:05;20.67;;;12.77;;
5245;SDS011;54412;51.206;6.888;2023-04-06T10:56:32;17.00;;;11.43;;
5245;SDS011;54412;51.206;6.888;2023-04-06T10:59:02;23.87;;;13.07;;
5245;SDS011;54412;51.206;6.888;2023-04-06T11:01:27;30.63;;;14.03;;
5245;SDS011;54412;51.206;6.888;2023-04-06T11:03:56;17.57;;;12.43;;
5245;SDS011;54412;51.206;6.888;2023-04-06T11:06:26;24.30;;;12.57;;
5245;SDS011;54412;51.206;6.888;2023-04-06T11:08:55;23.10;;;12.60;;
5245;SDS011;54412;51.206;6.888;2023-04-06T11:11:23;23.20;;;12.37;;
5245;SDS011;54412;51.206;6.888;2023-04-06T11:13:57;21.60;;;13.00;;
5245;SDS011;54412;51.206;6.888;2023-04-06T11:16:29;19.77;;;12.57;;
5245;SDS011;54412;51.206;6.888;2023-04-06T11:19:03;19.37;;;12.40;;
5245;SDS011;54412;51.206;6.888;2023-04-06T11:21:43;19.40;;;11.90;;
5245;SDS011;54412;51.206;6.888;2023-04-06T11:24:14;21.00;;;13.00;;
5245;SDS011;54412;51.206;6.888;2023-04-06T11:26:57;29.03;;;12.50;;
5245;SDS011;54412;51.206;6.888;2023-04-06T11:29:26;21.37;;;13.33;;
5245;SDS011;54412;51.206;6.888;2023-04-06T11:31:58;21.67;;;12.40;;
5245;SDS011;54412;51.206;6.888;2023-04-06T11:34:28;20.50;;;12.20;;
5245;SDS011;54412;51.206;6.888;2023-04-06T11:36:56;18.20;;;12.93;;
5245;SDS011;54412;51.206;6.888;2023-04-06T11:39:26;28.17;;;13.30;;
5245;SDS011;54412;51.206;6.888;2023-04-06T11:41:55;27.50;;;15.27;;
5245;SDS011;54412;51.206;6.888;2023-04-06T11:44:34;19.13;;;13.50;;
5245;SDS011;54412;51.206;6.888;2023-04-06T11:47:04;16.93;;;11.37;;
5245;SDS011;54412;51.206;6.888;2023-04-06T11:49:33;18.47;;;12.43;;
5245;SDS011;54412;51.206;6.888;2023-04-06T11:52:13;16.77;;;12.50;;
5245;SDS011;54412;51.206;6.888;2023-04-06T11:54:51;19.50;;;13.00;;
5245;SDS011;54412;51.206;6.888;2023-04-06T11:57:19;23.10;;;13.30;;
5245;SDS011;54412;51.206;6.888;2023-04-06T11:59:48;16.37;;;11.00;;
5245;SDS011;54412;51.206;6.888;2023-04-06T12:02:14;21.13;;;12.00;;
5245;SDS011;54412;51.206;6.888;2023-04-06T12:04:39;21.43;;;13.43;;
5245;SDS011;54412;51.206;6.888;2023-04-06T12:07:05;22.73;;;13.93;;
5245;SDS011;54412;51.206;6.888;2023-04-06T12:09:31;22.47;;;13.10;;
5245;SDS011;54412;51.206;6.888;2023-04-06T12:11:57;17.50;;;11.67;;
5245;SDS011;54412;51.206;6.888;2023-04-06T12:14:23;18.87;;;12.73;;
5245;SDS011;54412;51.206;6.888;2023-04-06T12:16:49;19.00;;;12.47;;
5245;SDS011;54412;51.206;6.888;2023-04-06T12:19:14;20.87;;;12.27;;
5245;SDS011;54412;51.206;6.888;2023-04-06T12:21:40;24.23;;;12.60;;
5245;SDS011;54412;51.206;6.888;2023-04-06T12:24:07;19.20;;;13.40;;
5245;SDS011;54412;51.206;6.888;2023-04-06T12:26:33;19.80;;;12.67;;
5245;SDS011;54412;51.206;6.888;2023-04-06T12:28:59;20.23;;;13.10;;
5245;SDS011;54412;51.206;6.888;2023-04-06T12:31:31;19.63;;;12.53;;
5245;SDS011;54412;51.206;6.888;2023-04-06T12:33:59;21.93;;;12.07;;
5245;SDS011;54412;51.206;6.888;2023-04-06T12:36:25;17.03;;;12.27;;
5245;SDS011;54412;51.206;6.888;2023-04-06T12:38:51;21.90;;;12.57;;
5245;SDS011;54412;51.206;6.888;2023-04-06T12:41:17;22.20;;;13.00;;
5245;SDS011;54412;51.206;6.888;2023-04-06T12:43:43;20.97;;;12.80;;
5245;SDS011;54412;51.206;6.888;2023-04-06T12:46:10;19.00;;;11.67;;
5245;SDS011;54412;51.206;6.888;2023-04-06T12:48:36;18.60;;;10.87;;
5245;SDS011;54412;51.206;6.888;2023-04-06T12:51:04;15.37;;;10.50;;
5245;SDS011;54412;51.206;6.888;2023-04-06T12:53:31;17.77;;;11.80;;
5245;SDS011;54412;51.206;6.888;2023-04-06T12:55:58;23.00;;;12.60;;
5245;SDS011;54412;51.206;6.888;2023-04-06T12:58:26;19.27;;;11.50;;
5245;SDS011;54412;51.206;6.888;2023-04-06T13:00:53;19.87;;;11.00;;
5245;SDS011;54412;51.206;6.888;2023-04-06T13:03:20;14.83;;;10.63;;
5245;SDS011;54412;51.206;6.888;2023-04-06T13:05:46;15.33;;;11.30;;
5245;SDS011;54412;51.206;6.888;2023-04-06T13:08:13;16.27;;;10.43;;
5245;SDS011;54412;51.206;6.888;2023-04-06T13:10:43;14.60;;;9.73;;
5245;SDS011;54412;51.206;6.888;2023-04-06T13:13:14;20.47;;;9.83;;
5245;SDS011;54412;51.206;6.888;2023-04-06T13:15:40;12.53;;;10.10;;
5245;SDS011;54412;51.206;6.888;2023-04-06T13:18:06;12.90;;;9.83;;
5245;SDS011;54412;51.206;6.888;2023-04-06T13:20:33;13.37;;;10.40;;
5245;SDS011;54412;51.206;6.888;2023-04-06T13:22:59;18.37;;;9.20;;
5245;SDS011;54412;51.206;6.888;2023-04-06T13:25:25;11.90;;;9.50;;
5245;SDS011;54412;51.206;6.888;2023-04-06T13:27:50;15.53;;;9.37;;
5245;SDS011;54412;51.206;6.888;2023-04-06T13:30:16;11.03;;;8.60;;
5245;SDS011;54412;51.206;6.888;2023-04-06T13:32:42;10.30;;;7.77;;
5245;SDS011;54412;51.206;6.888;2023-04-06T13:35:08;11.60;;;8.40;;
5245;SDS011;54412;51.206;6.888;2023-04-06T13:37:34;11.63;;;7.93;;
5245;SDS011;54412;51.206;6.888;2023-04-06T13:40:01;14.73;;;7.97;;
5245;SDS011;54412;51.206;6.888;2023-04-06T13:42:29;12.73;;;8.10;;
5245;SDS011;54412;51.206;6.888;2023-04-06T13:44:55;9.97;;;8.10;;
5245;SDS011;54412;51.206;6.888;2023-04-06T13:47:21;15.63;;;8.40;;
5245;SDS011;54412;51.206;6.888;2023-04-06T13:49:47;11.07;;;7.20;;
5245;SDS011;54412;51.206;6.888;2023-04-06T13:52:16;10.47;;;7.20;;
5245;SDS011;54412;51.206;6.888;2023-04-06T13:54:42;9.30;;;6.90;;
5245;SDS011;54412;51.206;6.888;2023-04-06T13:57:07;9.07;;;7.40;;
5245;SDS011;54412;51.206;6.888;2023-04-06T13:59:36;11.50;;;6.20;;
5245;SDS011;54412;51.206;6.888;2023-04-06T14:02:04;7.10;;;6.37;;
5245;SDS011;54412;51.206;6.888;2023-04-06T14:04:32;9.80;;;6.93;;
5245;SDS011;54412;51.206;6.888;2023-04-06T14:06:59;8.57;;;6.30;;
5245;SDS011;54412;51.206;6.888;2023-04-06T14:09:26;8.63;;;7.00;;
5245;SDS011;54412;51.206;6.888;2023-04-06T14:11:53;12.33;;;7.23;;
5245;SDS011;54412;51.206;6.888;2023-04-06T14:14:19;7.57;;;6.27;;
5245;SDS011;54412;51.206;6.888;2023-04-06T14:16:46;11.83;;;6.67;;
5245;SDS011;54412;51.206;6.888;2023-04-06T14:19:13;6.83;;;6.17;;
5245;SDS011;54412;51.206;6.888;2023-04-06T14:21:46;7.57;;;6.23;;
5245;SDS011;54412;51.206;6.888;2023-04-06T14:24:15;9.93;;;6.20;;
5245;SDS011;54412;51.206;6.888;2023-04-06T14:26:43;13.67;;;6.67;;
5245;SDS011;54412;51.206;6.888;2023-04-06T14:29:09;7.97;;;6.23;;
5245;SDS011;54412;51.206;6.888;2023-04-06T14:31:35;7.67;;;6.50;;
5245;SDS011;54412;51.206;6.888;2023-04-06T14:34:01;10.07;;;7.07;;
5245;SDS011;54412;51.206;6.888;2023-04-06T14:36:28;9.60;;;7.50;;
5245;SDS011;54412;51.206;6.888;2023-04-06T14:39:01;9.67;;;7.00;;
5245;SDS011;54412;51.206;6.888;2023-04-06T14:41:31;12.40;;;6.40;;
5245;SDS011;54412;51.206;6.888;2023-04-06T14:43:57;7.77;;;6.47;;
5245;SDS011;54412;51.206;6.888;2023-04-06T14:46:23;8.97;;;7.00;;
5245;SDS011;54412;51.206;6.888;2023-04-06T14:48:50;8.97;;;7.20;;